Califon, NJ

4:09 AM EST on December 25, 2014 (GMT -0500)
Somerset | Change Station
CLOSE
Current Station
Airport
Location: Somerville,
Elevation: 105 ft
Nearby Weather Stations
Active Advisory: Special Statement Active Notice: Record Report

Elev 105 ft 40.62 °N, 74.67 °W | Updated 16 minutes ago

Overcast
Overcast
59 °F
Feels Like 59 °F
N
7
Wind Variable Wind from Variable
Gusts 17 mph

Today
High -- | Low -- °F
--% Chance of Precip.
Yesterday
High -- | Low -- °F
Precip. -- in
7:21 AM 4:37 PM
Waxing Crescent, 15% visible
Pressure 29.55 in
Visibility 10.0 miles
Clouds Mostly Cloudy 4500 ft
Overcast 12000 ft
Dew Point 49 °F
Humidity 69%
Rainfall 0.04 in
Snow Depth Not available.
UV 0 out of 12
Pollen .10 out of 12
Air Quality Not available.
Flu Activity Not available.
METAR KSMQ 250853Z AUTO VRB06G15KT 10SM -RA BKN045 OVC120 15/09 A2955 RMK AO2 RAE19B49 PRESRR SLP007 P0000 60004 T01500094 53018

More Conditions Fewer Conditions

Pressure 29.55 in
Visibility 10.0 miles
Clouds Mostly Cloudy 4500 ft
Overcast 12000 ft
Dew Point 49 °F
Humidity 69%
Rainfall 0.04 in
Snow Depth Not available.
UV 0 out of 12
Pollen .10 out of 12
Air Quality Not available.
Flu Activity Not available.
METAR KSMQ 250853Z AUTO VRB06G15KT 10SM -RA BKN045 OVC120 15/09 A2955 RMK AO2 RAE19B49 PRESRR SLP007 P0000 60004 T01500094 53018

More Conditions Fewer Conditions

Nowcast | as of 2:06 am EST on December 25, 2014

Between now and 5 am, a cold front will clear most of the region. As it moves through, gusty west winds will occur with peak gusts reaching between 30 and 40 mph. Motorists and tractor trailer drivers are advised to be alert for an increase in winds, especially while crossing bridges and overpasses. In addition, an area of rain will be moving through the region and cause some ponding in poor drainage areas.

×

10-Day Weather Forecast

Almanac

Astronomy

Dec. 25, 2014 Rise Set
Actual Time
Civil Twilight
Nautical Twilight
Astronomical Twilight
Moon
Length of Visible Light
Length of Day
Tomorrow will be .
, % of the Moon is Illuminated

Today's Extremes

State Highs State Lows

Community

WunderPhotos

Upload Photos

1,780,250 photos uploaded!

WunderBlogs® & News

Nearby

Air Quality

  Air Quality AQ Index Pollutant
Not available.

Snow Depth

Station Depth Elevation

Earthquake Activity

City Distance Mag. Time & Date
Minimum magnitude displayed is 2.5.

Coastal Water Temperatures

Place Temperature

Nearby Weather Stations